sensor_id;sensor_type;location;lat;lon;timestamp;pressure;altitude;pressure_sealevel;temperature;humidity
61037;BME280;57313;47.040;15.498;2022-11-15T00:00:02;97151.66;;;7.62;100.00
61037;BME280;57313;47.040;15.498;2022-11-15T00:02:29;97145.72;;;7.60;100.00
61037;BME280;57313;47.040;15.498;2022-11-15T00:04:57;97148.53;;;7.55;100.00
61037;BME280;57313;47.040;15.498;2022-11-15T00:07:24;97156.22;;;7.57;100.00
61037;BME280;57313;47.040;15.498;2022-11-15T00:10:11;97152.22;;;7.51;100.00
61037;BME280;57313;47.040;15.498;2022-11-15T00:12:38;97152.13;;;7.52;100.00
61037;BME280;57313;47.040;15.498;2022-11-15T00:15:08;97145.34;;;7.50;100.00
61037;BME280;57313;47.040;15.498;2022-11-15T00:17:35;97140.94;;;7.52;100.00
61037;BME280;57313;47.040;15.498;2022-11-15T00:20:03;97151.13;;;7.55;100.00
61037;BME280;57313;47.040;15.498;2022-11-15T00:22:31;97154.56;;;7.55;100.00
61037;BME280;57313;47.040;15.498;2022-11-15T00:24:59;97153.03;;;7.51;100.00
61037;BME280;57313;47.040;15.498;2022-11-15T00:27:27;97150.53;;;7.50;100.00
61037;BME280;57313;47.040;15.498;2022-11-15T00:29:54;97144.75;;;7.45;100.00
61037;BME280;57313;47.040;15.498;2022-11-15T00:32:24;97132.78;;;7.42;100.00
61037;BME280;57313;47.040;15.498;2022-11-15T00:34:51;97154.28;;;7.44;100.00
61037;BME280;57313;47.040;15.498;2022-11-15T00:37:19;97140.56;;;7.42;100.00
61037;BME280;57313;47.040;15.498;2022-11-15T00:39:46;97145.75;;;7.42;100.00
61037;BME280;57313;47.040;15.498;2022-11-15T00:42:13;97139.56;;;7.45;100.00
61037;BME280;57313;47.040;15.498;2022-11-15T00:44:40;97137.56;;;7.50;100.00
61037;BME280;57313;47.040;15.498;2022-11-15T00:47:08;97137.50;;;7.51;100.00
61037;BME280;57313;47.040;15.498;2022-11-15T00:49:37;97137.66;;;7.48;100.00
61037;BME280;57313;47.040;15.498;2022-11-15T00:52:04;97137.72;;;7.47;100.00
61037;BME280;57313;47.040;15.498;2022-11-15T00:54:31;97129.38;;;7.42;100.00
61037;BME280;57313;47.040;15.498;2022-11-15T00:56:58;97129.44;;;7.40;100.00
61037;BME280;57313;47.040;15.498;2022-11-15T00:59:25;97120.75;;;7.41;100.00
61037;BME280;57313;47.040;15.498;2022-11-15T01:01:52;97123.44;;;7.40;100.00
61037;BME280;57313;47.040;15.498;2022-11-15T01:04:20;97106.88;;;7.42;100.00
61037;BME280;57313;47.040;15.498;2022-11-15T01:06:48;97109.31;;;7.45;100.00
61037;BME280;57313;47.040;15.498;2022-11-15T01:09:16;97099.72;;;7.47;100.00
61037;BME280;57313;47.040;15.498;2022-11-15T01:11:43;97096.44;;;7.44;100.00
61037;BME280;57313;47.040;15.498;2022-11-15T01:14:10;97084.41;;;7.43;100.00
61037;BME280;57313;47.040;15.498;2022-11-15T01:16:37;97088.66;;;7.44;100.00
61037;BME280;57313;47.040;15.498;2022-11-15T01:19:04;97077.53;;;7.42;100.00
61037;BME280;57313;47.040;15.498;2022-11-15T01:21:31;97087.75;;;7.45;100.00
61037;BME280;57313;47.040;15.498;2022-11-15T01:24:00;97094.53;;;7.47;100.00
61037;BME280;57313;47.040;15.498;2022-11-15T01:26:27;97093.00;;;7.43;100.00
61037;BME280;57313;47.040;15.498;2022-11-15T01:28:55;97089.91;;;7.36;100.00
61037;BME280;57313;47.040;15.498;2022-11-15T01:31:22;97089.97;;;7.35;100.00
61037;BME280;57313;47.040;15.498;2022-11-15T01:33:50;97087.47;;;7.33;100.00
61037;BME280;57313;47.040;15.498;2022-11-15T01:36:19;97091.19;;;7.28;100.00
61037;BME280;57313;47.040;15.498;2022-11-15T01:38:47;97095.88;;;7.21;100.00
61037;BME280;57313;47.040;15.498;2022-11-15T01:41:23;97092.34;;;7.22;100.00
61037;BME280;57313;47.040;15.498;2022-11-15T01:43:53;97109.41;;;7.26;100.00
61037;BME280;57313;47.040;15.498;2022-11-15T01:46:29;97106.91;;;7.25;100.00
61037;BME280;57313;47.040;15.498;2022-11-15T01:49:00;97102.63;;;7.24;100.00
61037;BME280;57313;47.040;15.498;2022-11-15T01:51:30;97100.09;;;7.22;100.00
61037;BME280;57313;47.040;15.498;2022-11-15T01:54:01;97098.75;;;7.15;100.00
61037;BME280;57313;47.040;15.498;2022-11-15T01:56:35;97087.53;;;7.14;100.00
61037;BME280;57313;47.040;15.498;2022-11-15T01:59:04;97080.72;;;7.13;100.00
61037;BME280;57313;47.040;15.498;2022-11-15T02:01:34;97087.53;;;7.14;100.00
61037;BME280;57313;47.040;15.498;2022-11-15T02:04:05;97079.63;;;7.17;100.00
61037;BME280;57313;47.040;15.498;2022-11-15T02:06:36;97079.31;;;7.24;100.00
61037;BME280;57313;47.040;15.498;2022-11-15T02:09:05;97081.38;;;7.17;100.00
61037;BME280;57313;47.040;15.498;2022-11-15T02:11:35;97067.84;;;7.12;100.00
61037;BME280;57313;47.040;15.498;2022-11-15T02:14:03;97074.66;;;7.13;100.00
61037;BME280;57313;47.040;15.498;2022-11-15T02:16:39;97068.59;;;7.14;100.00
61037;BME280;57313;47.040;15.498;2022-11-15T02:19:24;97072.63;;;7.19;100.00
61037;BME280;57313;47.040;15.498;2022-11-15T02:22:04;97076.88;;;7.21;100.00
61037;BME280;57313;47.040;15.498;2022-11-15T02:31:04;97065.31;;;7.10;100.00
61037;BME280;57313;47.040;15.498;2022-11-15T02:33:41;97066.97;;;7.11;100.00
61037;BME280;57313;47.040;15.498;2022-11-15T02:36:14;97061.81;;;7.11;100.00
61037;BME280;57313;47.040;15.498;2022-11-15T02:38:49;97059.13;;;7.13;100.00
61037;BME280;57313;47.040;15.498;2022-11-15T02:53:48;97039.66;;;7.06;100.00
61037;BME280;57313;47.040;15.498;2022-11-15T02:56:15;97044.84;;;7.06;100.00
61037;BME280;57313;47.040;15.498;2022-11-15T02:59:04;97039.81;;;7.03;100.00
61037;BME280;57313;47.040;15.498;2022-11-15T03:01:44;97038.06;;;7.03;100.00
61037;BME280;57313;47.040;15.498;2022-11-15T03:04:24;97032.06;;;7.03;100.00
61037;BME280;57313;47.040;15.498;2022-11-15T03:07:00;97044.38;;;6.97;100.00
61037;BME280;57313;47.040;15.498;2022-11-15T03:09:34;97034.16;;;6.94;100.00
61037;BME280;57313;47.040;15.498;2022-11-15T03:12:07;97030.59;;;6.97;100.00
61037;BME280;57313;47.040;15.498;2022-11-15T03:14:42;97032.13;;;7.01;100.00
61037;BME280;57313;47.040;15.498;2022-11-15T03:17:18;97027.69;;;7.03;100.00
61037;BME280;57313;47.040;15.498;2022-11-15T03:19:51;97002.72;;;7.02;100.00
61037;BME280;57313;47.040;15.498;2022-11-15T03:22:22;97018.09;;;7.05;100.00
61037;BME280;57313;47.040;15.498;2022-11-15T03:24:53;97015.34;;;7.08;100.00
61037;BME280;57313;47.040;15.498;2022-11-15T03:27:24;97019.69;;;7.08;100.00
61037;BME280;57313;47.040;15.498;2022-11-15T03:29:57;97011.34;;;7.03;100.00
61037;BME280;57313;47.040;15.498;2022-11-15T03:32:29;97014.25;;;6.96;100.00
61037;BME280;57313;47.040;15.498;2022-11-15T03:34:58;97008.59;;;6.88;100.00
61037;BME280;57313;47.040;15.498;2022-11-15T03:37:33;97015.44;;;6.89;100.00
61037;BME280;57313;47.040;15.498;2022-11-15T03:40:04;97010.03;;;6.94;100.00
61037;BME280;57313;47.040;15.498;2022-11-15T03:42:38;97004.63;;;6.98;100.00
61037;BME280;57313;47.040;15.498;2022-11-15T03:45:12;97009.88;;;6.97;100.00
61037;BME280;57313;47.040;15.498;2022-11-15T03:47:44;97008.44;;;6.91;100.00
61037;BME280;57313;47.040;15.498;2022-11-15T03:50:16;97007.44;;;6.94;100.00
61037;BME280;57313;47.040;15.498;2022-11-15T03:52:46;97008.19;;;6.96;100.00
61037;BME280;57313;47.040;15.498;2022-11-15T03:55:18;97006.31;;;6.99;100.00
61037;BME280;57313;47.040;15.498;2022-11-15T03:57:47;97004.47;;;7.01;100.00
61037;BME280;57313;47.040;15.498;2022-11-15T04:00:15;97010.47;;;7.02;100.00
61037;BME280;57313;47.040;15.498;2022-11-15T04:02:43;97006.97;;;7.03;100.00
61037;BME280;57313;47.040;15.498;2022-11-15T04:05:11;96998.63;;;6.98;100.00
61037;BME280;57313;47.040;15.498;2022-11-15T04:07:38;97000.28;;;6.99;100.00
61037;BME280;57313;47.040;15.498;2022-11-15T04:10:06;96998.00;;;6.93;100.00
61037;BME280;57313;47.040;15.498;2022-11-15T04:12:37;97005.91;;;6.90;100.00
61037;BME280;57313;47.040;15.498;2022-11-15T04:15:08;97002.28;;;6.94;100.00
61037;BME280;57313;47.040;15.498;2022-11-15T04:17:37;97000.50;;;6.94;100.00
61037;BME280;57313;47.040;15.498;2022-11-15T04:20:06;96989.41;;;6.92;100.00
61037;BME280;57313;47.040;15.498;2022-11-15T04:22:34;96994.75;;;6.89;100.00
61037;BME280;57313;47.040;15.498;2022-11-15T04:25:01;96982.69;;;6.88;100.00
61037;BME280;57313;47.040;15.498;2022-11-15T04:27:29;96981.78;;;6.89;100.00
61037;BME280;57313;47.040;15.498;2022-11-15T04:29:58;96979.88;;;6.93;100.00
61037;BME280;57313;47.040;15.498;2022-11-15T04:32:25;96982.22;;;6.97;100.00
61037;BME280;57313;47.040;15.498;2022-11-15T04:34:52;96975.56;;;6.93;100.00
61037;BME280;57313;47.040;15.498;2022-11-15T04:37:19;96967.72;;;6.95;100.00
61037;BME280;57313;47.040;15.498;2022-11-15T04:39:47;96961.75;;;6.93;100.00
61037;BME280;57313;47.040;15.498;2022-11-15T04:42:14;96953.09;;;6.94;100.00
61037;BME280;57313;47.040;15.498;2022-11-15T04:44:41;96960.69;;;6.97;100.00
61037;BME280;57313;47.040;15.498;2022-11-15T04:47:10;96956.34;;;6.97;100.00
61037;BME280;57313;47.040;15.498;2022-11-15T04:49:38;96959.00;;;6.96;100.00
61037;BME280;57313;47.040;15.498;2022-11-15T04:52:05;96957.34;;;6.95;100.00
61037;BME280;57313;47.040;15.498;2022-11-15T04:54:32;96959.09;;;6.94;100.00
61037;BME280;57313;47.040;15.498;2022-11-15T04:56:59;96964.34;;;6.93;100.00
61037;BME280;57313;47.040;15.498;2022-11-15T04:59:27;96948.16;;;6.89;100.00
61037;BME280;57313;47.040;15.498;2022-11-15T05:01:54;96951.41;;;6.93;100.00
61037;BME280;57313;47.040;15.498;2022-11-15T05:04:23;96950.50;;;6.94;100.00
61037;BME280;57313;47.040;15.498;2022-11-15T05:06:51;96944.50;;;6.93;100.00
61037;BME280;57313;47.040;15.498;2022-11-15T05:09:19;96948.00;;;6.92;100.00
61037;BME280;57313;47.040;15.498;2022-11-15T05:11:46;96939.97;;;6.97;100.00
61037;BME280;57313;47.040;15.498;2022-11-15T05:14:14;96927.19;;;6.94;100.00
61037;BME280;57313;47.040;15.498;2022-11-15T05:16:41;96940.81;;;6.97;100.00
61037;BME280;57313;47.040;15.498;2022-11-15T05:19:09;96939.41;;;6.92;100.00
61037;BME280;57313;47.040;15.498;2022-11-15T05:21:37;96933.59;;;6.87;100.00
61037;BME280;57313;47.040;15.498;2022-11-15T05:24:05;96937.78;;;6.89;100.00
61037;BME280;57313;47.040;15.498;2022-11-15T05:26:33;96928.41;;;6.87;100.00
61037;BME280;57313;47.040;15.498;2022-11-15T05:29:00;96926.78;;;6.86;100.00
61037;BME280;57313;47.040;15.498;2022-11-15T05:31:27;96928.56;;;6.83;100.00
61037;BME280;57313;47.040;15.498;2022-11-15T05:33:56;96925.09;;;6.85;100.00
61037;BME280;57313;47.040;15.498;2022-11-15T05:36:28;96926.94;;;6.82;100.00
61037;BME280;57313;47.040;15.498;2022-11-15T05:38:58;96938.09;;;6.83;100.00
61037;BME280;57313;47.040;15.498;2022-11-15T05:41:31;96930.25;;;6.85;100.00
61037;BME280;57313;47.040;15.498;2022-11-15T05:44:00;96931.88;;;6.87;100.00
61037;BME280;57313;47.040;15.498;2022-11-15T05:46:29;96940.53;;;6.86;100.00
61037;BME280;57313;47.040;15.498;2022-11-15T05:48:56;96932.41;;;6.76;100.00
61037;BME280;57313;47.040;15.498;2022-11-15T05:51:24;96930.97;;;6.71;100.00
61037;BME280;57313;47.040;15.498;2022-11-15T05:53:57;96935.09;;;6.75;100.00
61037;BME280;57313;47.040;15.498;2022-11-15T05:56:25;96935.31;;;6.70;100.00
61037;BME280;57313;47.040;15.498;2022-11-15T05:58:53;96948.09;;;6.73;100.00
61037;BME280;57313;47.040;15.498;2022-11-15T06:01:26;96947.34;;;6.71;100.00
61037;BME280;57313;47.040;15.498;2022-11-15T06:03:53;96927.47;;;6.72;100.00
61037;BME280;57313;47.040;15.498;2022-11-15T06:06:21;96946.66;;;6.68;100.00
61037;BME280;57313;47.040;15.498;2022-11-15T06:08:48;96938.22;;;6.64;100.00
61037;BME280;57313;47.040;15.498;2022-11-15T06:11:17;96945.16;;;6.63;100.00
61037;BME280;57313;47.040;15.498;2022-11-15T06:13:44;96949.69;;;6.58;100.00
61037;BME280;57313;47.040;15.498;2022-11-15T06:16:11;96956.56;;;6.59;100.00
61037;BME280;57313;47.040;15.498;2022-11-15T06:18:38;96948.56;;;6.64;100.00
61037;BME280;57313;47.040;15.498;2022-11-15T06:21:05;96957.84;;;6.68;100.00
61037;BME280;57313;47.040;15.498;2022-11-15T06:23:34;96955.28;;;6.68;100.00
61037;BME280;57313;47.040;15.498;2022-11-15T06:26:02;96963.84;;;6.69;100.00
61037;BME280;57313;47.040;15.498;2022-11-15T06:28:32;96956.09;;;6.69;100.00
61037;BME280;57313;47.040;15.498;2022-11-15T06:31:03;96960.38;;;6.70;100.00
61037;BME280;57313;47.040;15.498;2022-11-15T06:33:30;96963.72;;;6.72;100.00
61037;BME280;57313;47.040;15.498;2022-11-15T06:36:00;96962.09;;;6.69;100.00
61037;BME280;57313;47.040;15.498;2022-11-15T06:38:27;96960.28;;;6.71;100.00
61037;BME280;57313;47.040;15.498;2022-11-15T06:40:55;96967.97;;;6.73;100.00
61037;BME280;57313;47.040;15.498;2022-11-15T06:43:22;96964.31;;;6.77;100.00
61037;BME280;57313;47.040;15.498;2022-11-15T06:45:51;96973.59;;;6.81;100.00
61037;BME280;57313;47.040;15.498;2022-11-15T06:48:18;96963.09;;;6.84;100.00
61037;BME280;57313;47.040;15.498;2022-11-15T06:50:50;96966.34;;;6.88;100.00
61037;BME280;57313;47.040;15.498;2022-11-15T06:53:18;96964.00;;;6.83;100.00
61037;BME280;57313;47.040;15.498;2022-11-15T06:55:45;96974.66;;;6.77;100.00
61037;BME280;57313;47.040;15.498;2022-11-15T06:58:17;96956.53;;;6.77;100.00
61037;BME280;57313;47.040;15.498;2022-11-15T07:00:46;96959.78;;;6.80;100.00
61037;BME280;57313;47.040;15.498;2022-11-15T07:03:16;96958.06;;;6.81;100.00
61037;BME280;57313;47.040;15.498;2022-11-15T07:05:51;96962.22;;;6.83;100.00
61037;BME280;57313;47.040;15.498;2022-11-15T07:08:19;96956.06;;;6.86;100.00
61037;BME280;57313;47.040;15.498;2022-11-15T07:10:46;96955.09;;;6.89;100.00
61037;BME280;57313;47.040;15.498;2022-11-15T07:13:13;96955.75;;;6.92;100.00
61037;BME280;57313;47.040;15.498;2022-11-15T07:15:40;96961.53;;;6.97;100.00
61037;BME280;57313;47.040;15.498;2022-11-15T07:18:07;96952.03;;;6.98;100.00
61037;BME280;57313;47.040;15.498;2022-11-15T07:20:36;96947.66;;;6.98;100.00
61037;BME280;57313;47.040;15.498;2022-11-15T07:23:05;96945.97;;;6.97;100.00
61037;BME280;57313;47.040;15.498;2022-11-15T07:25:32;96939.91;;;6.98;100.00
61037;BME280;57313;47.040;15.498;2022-11-15T07:27:59;96930.22;;;7.02;100.00
61037;BME280;57313;47.040;15.498;2022-11-15T07:30:28;96936.16;;;7.04;100.00
61037;BME280;57313;47.040;15.498;2022-11-15T07:32:56;96930.06;;;7.05;100.00
61037;BME280;57313;47.040;15.498;2022-11-15T07:35:24;96932.56;;;7.07;100.00
61037;BME280;57313;47.040;15.498;2022-11-15T07:37:58;96928.91;;;7.11;100.00
61037;BME280;57313;47.040;15.498;2022-11-15T07:40:26;96939.09;;;7.14;100.00
61037;BME280;57313;47.040;15.498;2022-11-15T07:42:59;96936.50;;;7.14;100.00
61037;BME280;57313;47.040;15.498;2022-11-15T07:45:26;96933.84;;;7.15;100.00
61037;BME280;57313;47.040;15.498;2022-11-15T07:47:53;96934.75;;;7.14;100.00
61037;BME280;57313;47.040;15.498;2022-11-15T07:50:21;96942.50;;;7.14;100.00
61037;BME280;57313;47.040;15.498;2022-11-15T07:52:53;96930.34;;;7.16;100.00
61037;BME280;57313;47.040;15.498;2022-11-15T07:55:23;96937.00;;;7.21;100.00
61037;BME280;57313;47.040;15.498;2022-11-15T07:57:50;96930.84;;;7.23;100.00
61037;BME280;57313;47.040;15.498;2022-11-15T08:00:17;96934.19;;;7.25;100.00
61037;BME280;57313;47.040;15.498;2022-11-15T08:02:45;96929.25;;;7.21;100.00
61037;BME280;57313;47.040;15.498;2022-11-15T08:05:12;96924.91;;;7.21;100.00
61037;BME280;57313;47.040;15.498;2022-11-15T08:07:39;96931.50;;;7.27;100.00
61037;BME280;57313;47.040;15.498;2022-11-15T08:10:07;96926.34;;;7.27;100.00
61037;BME280;57313;47.040;15.498;2022-11-15T08:12:36;96920.97;;;7.30;100.00
61037;BME280;57313;47.040;15.498;2022-11-15T08:15:04;96928.66;;;7.31;100.00
61037;BME280;57313;47.040;15.498;2022-11-15T08:17:31;96928.66;;;7.31;100.00
61037;BME280;57313;47.040;15.498;2022-11-15T08:19:58;96921.69;;;7.33;100.00
61037;BME280;57313;47.040;15.498;2022-11-15T08:22:25;96919.75;;;7.37;100.00
61037;BME280;57313;47.040;15.498;2022-11-15T08:24:53;96915.56;;;7.34;100.00
61037;BME280;57313;47.040;15.498;2022-11-15T08:27:20;96913.91;;;7.33;100.00
61037;BME280;57313;47.040;15.498;2022-11-15T08:29:49;96919.59;;;7.40;100.00
61037;BME280;57313;47.040;15.498;2022-11-15T08:32:22;96918.69;;;7.41;100.00
61037;BME280;57313;47.040;15.498;2022-11-15T08:34:50;96911.31;;;7.33;100.00
61037;BME280;57313;47.040;15.498;2022-11-15T08:37:17;96907.28;;;7.28;100.00
61037;BME280;57313;47.040;15.498;2022-11-15T08:39:44;96907.38;;;7.26;100.00
61037;BME280;57313;47.040;15.498;2022-11-15T08:42:11;96900.50;;;7.25;100.00
61037;BME280;57313;47.040;15.498;2022-11-15T08:44:45;96905.13;;;7.20;100.00
61037;BME280;57313;47.040;15.498;2022-11-15T08:47:13;96912.72;;;7.23;100.00
61037;BME280;57313;47.040;15.498;2022-11-15T08:49:41;96907.38;;;7.26;100.00
61037;BME280;57313;47.040;15.498;2022-11-15T08:52:08;96904.53;;;7.31;100.00
61037;BME280;57313;47.040;15.498;2022-11-15T08:54:36;96901.78;;;7.34;100.00
61037;BME280;57313;47.040;15.498;2022-11-15T08:57:03;96897.19;;;7.39;100.00
61037;BME280;57313;47.040;15.498;2022-11-15T08:59:31;96896.09;;;7.43;100.00
61037;BME280;57313;47.040;15.498;2022-11-15T09:01:58;96901.94;;;7.47;100.00
61037;BME280;57313;47.040;15.498;2022-11-15T09:04:28;96905.38;;;7.47;100.00
61037;BME280;57313;47.040;15.498;2022-11-15T09:06:55;96905.31;;;7.49;100.00
61037;BME280;57313;47.040;15.498;2022-11-15T09:09:23;96908.88;;;7.46;100.00
61037;BME280;57313;47.040;15.498;2022-11-15T09:11:50;96902.09;;;7.44;100.00
61037;BME280;57313;47.040;15.498;2022-11-15T09:14:17;96901.53;;;7.39;100.00
61037;BME280;57313;47.040;15.498;2022-11-15T09:16:44;96906.38;;;7.45;100.00
61037;BME280;57313;47.040;15.498;2022-11-15T09:19:11;96899.44;;;7.45;100.00
61037;BME280;57313;47.040;15.498;2022-11-15T09:21:41;96895.09;;;7.46;100.00
61037;BME280;57313;47.040;15.498;2022-11-15T09:24:08;96894.25;;;7.45;100.00
61037;BME280;57313;47.040;15.498;2022-11-15T09:26:35;96896.00;;;7.45;100.00
61037;BME280;57313;47.040;15.498;2022-11-15T09:29:03;96898.34;;;7.49;100.00
61037;BME280;57313;47.040;15.498;2022-11-15T09:31:30;96892.50;;;7.46;100.00
61037;BME280;57313;47.040;15.498;2022-11-15T09:33:57;96890.75;;;7.46;100.00
61037;BME280;57313;47.040;15.498;2022-11-15T09:36:24;96883.06;;;7.45;100.00
61037;BME280;57313;47.040;15.498;2022-11-15T09:38:52;96879.81;;;7.41;100.00
61037;BME280;57313;47.040;15.498;2022-11-15T09:41:38;96882.22;;;7.44;100.00
61037;BME280;57313;47.040;15.498;2022-11-15T09:44:24;96877.97;;;7.43;100.00
61037;BME280;57313;47.040;15.498;2022-11-15T09:47:00;96882.81;;;7.49;100.00
61037;BME280;57313;47.040;15.498;2022-11-15T09:49:33;96865.31;;;7.53;100.00
61037;BME280;57313;47.040;15.498;2022-11-15T09:52:02;96853.97;;;7.55;100.00
61037;BME280;57313;47.040;15.498;2022-11-15T09:54:34;96849.53;;;7.58;100.00
61037;BME280;57313;47.040;15.498;2022-11-15T09:57:27;96846.94;;;7.58;100.00
61037;BME280;57313;47.040;15.498;2022-11-15T10:00:13;96848.53;;;7.60;100.00
61037;BME280;57313;47.040;15.498;2022-11-15T10:03:09;96845.84;;;7.62;100.00
61037;BME280;57313;47.040;15.498;2022-11-15T10:05:39;96841.91;;;7.54;100.00
61037;BME280;57313;47.040;15.498;2022-11-15T10:08:20;96846.38;;;7.52;100.00
61037;BME280;57313;47.040;15.498;2022-11-15T10:10:56;96839.41;;;7.53;100.00
61037;BME280;57313;47.040;15.498;2022-11-15T10:13:46;96828.78;;;7.58;100.00
61037;BME280;57313;47.040;15.498;2022-11-15T10:16:28;96826.78;;;7.63;100.00
61037;BME280;57313;47.040;15.498;2022-11-15T10:19:03;96814.31;;;7.69;100.00
61037;BME280;57313;47.040;15.498;2022-11-15T10:21:40;96811.47;;;7.74;100.00
61037;BME280;57313;47.040;15.498;2022-11-15T10:24:11;96804.34;;;7.78;100.00
61037;BME280;57313;47.040;15.498;2022-11-15T10:26:45;96800.75;;;7.80;100.00
61037;BME280;57313;47.040;15.498;2022-11-15T10:29:18;96800.47;;;7.85;100.00
61037;BME280;57313;47.040;15.498;2022-11-15T10:31:52;96794.44;;;7.84;100.00
61037;BME280;57313;47.040;15.498;2022-11-15T10:34:21;96790.75;;;7.88;100.00
61037;BME280;57313;47.040;15.498;2022-11-15T10:36:54;96785.31;;;7.93;100.00
61037;BME280;57313;47.040;15.498;2022-11-15T10:39:21;96781.72;;;7.96;100.00
61037;BME280;57313;47.040;15.498;2022-11-15T10:41:50;96787.63;;;7.98;100.00
61037;BME280;57313;47.040;15.498;2022-11-15T10:44:20;96768.56;;;7.99;100.00
61037;BME280;57313;47.040;15.498;2022-11-15T10:47:04;96764.66;;;8.06;100.00
61037;BME280;57313;47.040;15.498;2022-11-15T10:49:33;96765.53;;;8.06;100.00
61037;BME280;57313;47.040;15.498;2022-11-15T10:52:03;96761.97;;;8.07;100.00
61037;BME280;57313;47.040;15.498;2022-11-15T10:54:41;96753.19;;;8.10;100.00
61037;BME280;57313;47.040;15.498;2022-11-15T10:57:14;96738.28;;;8.14;100.00
61037;BME280;57313;47.040;15.498;2022-11-15T10:59:45;96738.38;;;8.12;100.00
61037;BME280;57313;47.040;15.498;2022-11-15T11:02:29;96729.75;;;8.12;100.00
61037;BME280;57313;47.040;15.498;2022-11-15T11:04:57;96716.69;;;8.13;100.00
61037;BME280;57313;47.040;15.498;2022-11-15T11:07:27;96728.75;;;8.14;100.00
61037;BME280;57313;47.040;15.498;2022-11-15T11:09:59;96720.78;;;8.17;100.00
61037;BME280;57313;47.040;15.498;2022-11-15T11:12:30;96722.34;;;8.20;100.00
61037;BME280;57313;47.040;15.498;2022-11-15T11:14:59;96729.13;;;8.22;100.00
61037;BME280;57313;47.040;15.498;2022-11-15T11:17:35;96710.31;;;8.19;100.00
61037;BME280;57313;47.040;15.498;2022-11-15T11:20:11;96708.56;;;8.19;100.00
61037;BME280;57313;47.040;15.498;2022-11-15T11:22:50;96699.00;;;8.20;100.00
61037;BME280;57313;47.040;15.498;2022-11-15T11:25:27;96699.00;;;8.20;100.00
61037;BME280;57313;47.040;15.498;2022-11-15T11:28:10;96698.72;;;8.10;100.00
61037;BME280;57313;47.040;15.498;2022-11-15T11:30:57;96690.03;;;8.11;100.00
61037;BME280;57313;47.040;15.498;2022-11-15T11:33:31;96684.47;;;8.17;100.00
61037;BME280;57313;47.040;15.498;2022-11-15T11:36:08;96685.03;;;8.22;100.00
61037;BME280;57313;47.040;15.498;2022-11-15T11:38:48;96683.91;;;8.26;100.00
61037;BME280;57313;47.040;15.498;2022-11-15T11:41:27;96687.25;;;8.29;100.00
61037;BME280;57313;47.040;15.498;2022-11-15T11:44:18;96679.75;;;8.24;100.00
61037;BME280;57313;47.040;15.498;2022-11-15T11:46:55;96672.78;;;8.24;100.00
61037;BME280;57313;47.040;15.498;2022-11-15T11:49:28;96666.84;;;8.22;100.00
61037;BME280;57313;47.040;15.498;2022-11-15T11:52:03;96660.66;;;8.25;100.00
61037;BME280;57313;47.040;15.498;2022-11-15T11:54:39;96645.81;;;8.27;100.00
61037;BME280;57313;47.040;15.498;2022-11-15T11:57:18;96640.97;;;8.35;100.00
61037;BME280;57313;47.040;15.498;2022-11-15T11:59:53;96633.00;;;8.38;100.00
61037;BME280;57313;47.040;15.498;2022-11-15T12:02:27;96622.34;;;8.43;100.00
61037;BME280;57313;47.040;15.498;2022-11-15T12:05:03;96629.31;;;8.42;100.00
61037;BME280;57313;47.040;15.498;2022-11-15T12:07:33;96626.72;;;8.42;100.00
61037;BME280;57313;47.040;15.498;2022-11-15T12:10:05;96627.53;;;8.43;100.00
61037;BME280;57313;47.040;15.498;2022-11-15T12:12:43;96618.34;;;8.37;100.00
61037;BME280;57313;47.040;15.498;2022-11-15T12:15:16;96614.84;;;8.38;100.00
61037;BME280;57313;47.040;15.498;2022-11-15T12:17:46;96619.84;;;8.41;100.00
61037;BME280;57313;47.040;15.498;2022-11-15T12:20:16;96610.66;;;8.36;100.00
61037;BME280;57313;47.040;15.498;2022-11-15T12:22:49;96604.38;;;8.40;100.00
61037;BME280;57313;47.040;15.498;2022-11-15T12:25:22;96594.91;;;8.39;100.00
61037;BME280;57313;47.040;15.498;2022-11-15T12:27:56;96598.47;;;8.38;100.00
61037;BME280;57313;47.040;15.498;2022-11-15T12:30:38;96601.06;;;8.38;100.00
61037;BME280;57313;47.040;15.498;2022-11-15T12:33:29;96595.31;;;8.33;100.00
61037;BME280;57313;47.040;15.498;2022-11-15T12:35:58;96586.78;;;8.31;100.00
61037;BME280;57313;47.040;15.498;2022-11-15T12:38:52;96601.44;;;8.32;100.00
61037;BME280;57313;47.040;15.498;2022-11-15T12:41:21;96604.84;;;8.32;100.00
61037;BME280;57313;47.040;15.498;2022-11-15T12:43:49;96605.69;;;8.33;100.00
61037;BME280;57313;47.040;15.498;2022-11-15T12:46:23;96598.56;;;8.36;100.00
61037;BME280;57313;47.040;15.498;2022-11-15T12:48:56;96596.44;;;8.29;100.00
61037;BME280;57313;47.040;15.498;2022-11-15T12:54:49;96596.34;;;8.30;100.00
61037;BME280;57313;47.040;15.498;2022-11-15T12:57:29;96598.31;;;8.26;100.00
61037;BME280;57313;47.040;15.498;2022-11-15T12:59:58;96589.97;;;8.21;100.00
61037;BME280;57313;47.040;15.498;2022-11-15T13:02:29;96579.88;;;8.17;100.00
61037;BME280;57313;47.040;15.498;2022-11-15T13:08:03;96583.22;;;8.19;100.00
61037;BME280;57313;47.040;15.498;2022-11-15T13:10:31;96574.41;;;8.21;100.00
61037;BME280;57313;47.040;15.498;2022-11-15T13:13:00;96569.22;;;8.21;100.00
61037;BME280;57313;47.040;15.498;2022-11-15T13:15:34;96564.22;;;8.18;100.00
61037;BME280;57313;47.040;15.498;2022-11-15T13:18:30;96569.69;;;8.14;100.00
61037;BME280;57313;47.040;15.498;2022-11-15T13:20:58;96564.88;;;8.07;100.00
61037;BME280;57313;47.040;15.498;2022-11-15T13:23:28;96566.13;;;8.02;100.00
61037;BME280;57313;47.040;15.498;2022-11-15T13:26:12;96561.94;;;7.99;100.00
61037;BME280;57313;47.040;15.498;2022-11-15T13:28:43;96557.47;;;8.01;100.00
61037;BME280;57313;47.040;15.498;2022-11-15T13:31:29;96557.19;;;8.06;100.00
61037;BME280;57313;47.040;15.498;2022-11-15T13:34:02;96547.69;;;8.06;100.00